createdAt,value
2022-08-11T00:02:01.593Z,15.00
2022-08-11T00:04:37.234Z,14.90
2022-08-11T00:07:06.913Z,14.80
2022-08-11T00:09:39.046Z,14.70
2022-08-11T00:12:16.134Z,14.70
2022-08-11T00:14:45.266Z,14.70
2022-08-11T00:17:15.720Z,14.60
2022-08-11T00:20:14.038Z,14.50
2022-08-11T00:22:34.975Z,14.50
2022-08-11T00:25:10.732Z,14.50
2022-08-11T00:27:40.374Z,14.50
2022-08-11T00:30:09.226Z,14.50
2022-08-11T00:32:39.089Z,14.40
2022-08-11T00:35:51.046Z,14.30
2022-08-11T00:37:57.066Z,14.50
2022-08-11T00:40:33.576Z,14.40
2022-08-11T00:43:20.005Z,14.30
2022-08-11T00:46:16.966Z,14.30
2022-08-11T00:49:16.134Z,14.20
2022-08-11T00:52:10.804Z,14.20
2022-08-11T00:54:50.638Z,14.20
2022-08-11T00:57:52.117Z,14.10
2022-08-11T01:00:25.327Z,14.10
2022-08-11T01:03:33.930Z,14.10
2022-08-11T01:06:25.937Z,14.10
2022-08-11T01:09:09.221Z,14.20
2022-08-11T01:12:09.986Z,14.20
2022-08-11T01:15:14.792Z,14.10
2022-08-11T01:18:01.101Z,14.00
2022-08-11T01:20:50.249Z,13.90
2022-08-11T01:23:41.426Z,13.90
2022-08-11T01:26:30.665Z,13.80
2022-08-11T01:29:35.766Z,13.80
2022-08-11T01:32:50.961Z,13.70
2022-08-11T01:35:57.221Z,13.60
2022-08-11T01:38:48.243Z,13.50
2022-08-11T01:41:56.757Z,13.50
2022-08-11T01:45:03.955Z,13.50
2022-08-11T01:47:53.169Z,13.60
2022-08-11T01:50:42.854Z,13.60
2022-08-11T01:53:28.461Z,13.40
2022-08-11T01:56:28.508Z,13.30
2022-08-11T01:59:06.805Z,13.30
2022-08-11T02:01:36.676Z,13.30
2022-08-11T02:04:42.276Z,13.30
2022-08-11T02:07:16.042Z,13.30
2022-08-11T02:09:51.876Z,13.20
2022-08-11T02:12:51.236Z,13.20
2022-08-11T02:15:37.518Z,13.30
2022-08-11T02:18:45.327Z,13.20
2022-08-11T02:21:37.746Z,13.10
2022-08-11T02:24:14.023Z,13.10
2022-08-11T02:26:59.693Z,13.10
2022-08-11T02:30:07.164Z,13.10
2022-08-11T02:33:10.585Z,13.10
2022-08-11T02:36:04.280Z,13.10
2022-08-11T02:38:52.048Z,13.00
2022-08-11T02:42:32.023Z,13.00
2022-08-11T02:45:12.478Z,12.90
2022-08-11T02:48:15.023Z,12.90
2022-08-11T02:51:01.614Z,13.00
2022-08-11T02:53:36.195Z,13.00
2022-08-11T02:56:03.828Z,12.80
2022-08-11T02:59:18.801Z,12.80
2022-08-11T03:02:28.381Z,12.70
2022-08-11T03:04:59.857Z,12.60
2022-08-11T03:07:35.864Z,12.60
2022-08-11T03:10:21.321Z,12.60
2022-08-11T03:13:26.362Z,12.60
2022-08-11T03:16:37.905Z,12.60
2022-08-11T03:19:37.577Z,12.70
2022-08-11T03:22:27.455Z,12.50
2022-08-11T03:25:02.200Z,12.50
2022-08-11T03:28:04.325Z,12.40
2022-08-11T03:30:44.270Z,12.40
2022-08-11T03:33:52.914Z,12.40
2022-08-11T03:37:17.259Z,12.40
2022-08-11T03:40:16.740Z,12.40
2022-08-11T03:43:00.009Z,12.30
2022-08-11T03:45:49.978Z,12.30
2022-08-11T03:48:39.992Z,12.40
2022-08-11T03:51:51.557Z,12.40
2022-08-11T03:54:37.025Z,12.40
2022-08-11T03:57:16.606Z,12.30
2022-08-11T04:00:04.405Z,12.30
2022-08-11T04:02:43.836Z,12.30
2022-08-11T04:05:49.175Z,12.30
2022-08-11T04:08:40.339Z,12.30
2022-08-11T04:11:29.743Z,12.40
2022-08-11T04:15:00.166Z,12.40
2022-08-11T04:17:55.368Z,12.40
2022-08-11T04:20:50.286Z,12.30
2022-08-11T04:24:33.401Z,12.20
2022-08-11T04:26:18.837Z,12.10
2022-08-11T04:29:09.663Z,12.10
2022-08-11T04:31:57.516Z,12.10
2022-08-11T04:34:35.828Z,12.20
2022-08-11T04:37:35.284Z,12.30
2022-08-11T04:40:33.809Z,12.40
2022-08-11T04:44:02.401Z,12.40
2022-08-11T04:46:56.388Z,12.40
2022-08-11T04:49:51.637Z,12.40
2022-08-11T04:52:49.958Z,12.50
2022-08-11T04:56:14.256Z,12.50
2022-08-11T04:59:03.061Z,12.60
2022-08-11T05:02:04.690Z,12.80
2022-08-11T05:05:25.776Z,12.90
2022-08-11T05:08:27.878Z,12.90
2022-08-11T05:11:04.516Z,12.90
2022-08-11T05:14:06.016Z,13.10
2022-08-11T05:17:14.036Z,13.20
2022-08-11T05:20:05.603Z,13.40
2022-08-11T05:22:53.802Z,13.50
2022-08-11T05:26:43.689Z,13.60
2022-08-11T05:29:21.220Z,13.70
2022-08-11T05:32:17.924Z,13.90
2022-08-11T05:34:54.893Z,14.10
2022-08-11T05:37:33.528Z,14.30
2022-08-11T05:40:32.230Z,14.40
2022-08-11T05:43:21.160Z,14.50
2022-08-11T05:46:25.690Z,14.70
2022-08-11T05:49:12.534Z,14.90
2022-08-11T05:52:04.863Z,15.00
2022-08-11T05:54:54.484Z,15.20
2022-08-11T05:57:48.833Z,15.30
2022-08-11T06:00:16.880Z,15.50
2022-08-11T06:02:55.642Z,15.70
2022-08-11T06:05:33.113Z,15.90
2022-08-11T06:08:10.495Z,16.00
2022-08-11T06:10:40.507Z,16.10
2022-08-11T06:13:08.796Z,16.30
2022-08-11T06:15:45.797Z,16.40
2022-08-11T06:18:13.804Z,16.50
2022-08-11T06:20:56.995Z,16.70
2022-08-11T06:23:32.187Z,16.80
2022-08-11T06:26:00.953Z,16.90
2022-08-11T06:28:37.429Z,17.10
2022-08-11T06:31:19.385Z,17.10
2022-08-11T06:34:41.720Z,17.20
2022-08-11T06:37:42.329Z,17.30
2022-08-11T06:40:27.589Z,17.40
2022-08-11T06:43:23.168Z,17.60
2022-08-11T06:46:03.408Z,17.70
2022-08-11T06:48:34.022Z,17.90
2022-08-11T06:51:14.738Z,18.00
2022-08-11T06:54:03.755Z,18.10
2022-08-11T06:57:29.984Z,18.30
2022-08-11T07:00:07.261Z,18.40
2022-08-11T07:02:42.515Z,18.60
2022-08-11T07:05:24.048Z,18.70
2022-08-11T07:08:36.004Z,18.80
2022-08-11T07:11:40.478Z,18.90
2022-08-11T07:14:27.313Z,19.00
2022-08-11T07:16:56.486Z,19.20
2022-08-11T07:19:48.009Z,19.40
2022-08-11T07:22:34.861Z,19.50
2022-08-11T07:25:27.887Z,19.60
2022-08-11T07:28:19.924Z,19.70
2022-08-11T07:30:48.755Z,19.90
2022-08-11T07:34:07.221Z,20.10
2022-08-11T07:36:18.594Z,20.20
2022-08-11T07:38:51.792Z,20.40
2022-08-11T07:41:22.704Z,20.60
2022-08-11T07:43:54.554Z,20.80
2022-08-11T07:46:41.615Z,21.10
2022-08-11T07:49:28.976Z,21.20
2022-08-11T07:52:15.125Z,21.50
2022-08-11T07:54:43.914Z,21.70
2022-08-11T07:58:02.222Z,21.90
2022-08-11T08:00:41.784Z,21.90
2022-08-11T08:03:28.327Z,22.00
2022-08-11T08:06:23.289Z,22.20
2022-08-11T08:09:20.936Z,22.30
2022-08-11T08:12:07.903Z,22.50
2022-08-11T08:14:55.189Z,22.70
2022-08-11T08:17:41.795Z,22.80
2022-08-11T08:20:13.404Z,23.00
2022-08-11T08:22:46.400Z,23.10
2022-08-11T08:25:17.088Z,23.20
2022-08-11T08:27:46.029Z,23.30
2022-08-11T08:30:32.940Z,23.50
2022-08-11T08:33:01.937Z,23.60
2022-08-11T08:35:32.827Z,23.80
2022-08-11T08:38:02.737Z,23.90
2022-08-11T08:40:29.912Z,24.10
2022-08-11T08:43:03.302Z,24.20
2022-08-11T08:45:34.822Z,24.30
2022-08-11T08:48:09.570Z,24.40
2022-08-11T08:50:59.594Z,24.50
2022-08-11T08:53:32.402Z,24.70
2022-08-11T08:56:02.449Z,25.00
2022-08-11T08:58:32.020Z,25.30
2022-08-11T09:01:01.374Z,25.50
2022-08-11T09:04:04.831Z,25.60
2022-08-11T09:06:17.285Z,25.60
2022-08-11T09:08:46.483Z,25.70
2022-08-11T09:11:37.294Z,25.80
2022-08-11T09:14:09.295Z,25.90
2022-08-11T09:16:39.841Z,26.20
2022-08-11T09:19:08.203Z,26.40
2022-08-11T09:21:46.368Z,26.80
2022-08-11T09:24:56.682Z,27.10
2022-08-11T09:27:25.679Z,27.50
2022-08-11T09:29:54.765Z,27.90
2022-08-11T09:32:23.408Z,27.80
2022-08-11T09:34:53.991Z,27.90
2022-08-11T09:37:54.343Z,28.00
2022-08-11T09:40:32.404Z,28.40
2022-08-11T09:43:22.666Z,28.60
2022-08-11T09:45:55.157Z,28.80
2022-08-11T09:48:25.067Z,29.10
2022-08-11T09:50:55.493Z,29.00
2022-08-11T09:53:37.319Z,29.00
2022-08-11T09:56:40.827Z,29.40
2022-08-11T09:59:09.387Z,29.70
2022-08-11T10:01:47.227Z,30.40
2022-08-11T10:04:18.747Z,30.10
2022-08-11T10:07:04.158Z,30.20
2022-08-11T10:09:41.748Z,30.60
2022-08-11T10:12:12.759Z,30.80
2022-08-11T10:15:04.553Z,30.70
2022-08-11T10:17:36.472Z,30.30
2022-08-11T10:20:06.137Z,30.20
2022-08-11T10:22:53.586Z,30.40
2022-08-11T10:25:40.114Z,30.70
2022-08-11T10:28:33.187Z,30.80
2022-08-11T10:31:16.718Z,31.00
2022-08-11T10:34:01.734Z,30.90
2022-08-11T10:36:34.730Z,31.00
2022-08-11T10:39:04.953Z,31.60
2022-08-11T10:42:08.597Z,32.20
2022-08-11T10:44:42.094Z,32.40
2022-08-11T10:47:31.334Z,32.20
2022-08-11T10:50:18.150Z,32.30
2022-08-11T10:53:07.437Z,31.70
2022-08-11T10:55:58.690Z,32.10
2022-08-11T10:58:45.569Z,32.20
2022-08-11T11:01:15.172Z,32.30
2022-08-11T11:03:43.666Z,31.80
2022-08-11T11:06:32.537Z,31.60
2022-08-11T11:09:09.746Z,31.60
2022-08-11T11:12:07.836Z,31.70
2022-08-11T11:14:59.063Z,32.00
2022-08-11T11:17:56.535Z,32.10
2022-08-11T11:20:45.038Z,32.00
2022-08-11T11:23:20.900Z,32.30
2022-08-11T11:26:07.050Z,32.30
2022-08-11T11:29:02.238Z,32.50
2022-08-11T11:32:21.919Z,32.00
2022-08-11T11:35:09.376Z,32.00
2022-08-11T11:37:38.942Z,32.00
2022-08-11T11:40:14.628Z,32.80
2022-08-11T11:42:46.015Z,32.00
2022-08-11T11:45:24.091Z,31.50
2022-08-11T11:47:54.868Z,31.40
2022-08-11T11:50:36.694Z,31.70
2022-08-11T11:53:10.577Z,32.00
2022-08-11T11:55:38.351Z,32.30
2022-08-11T11:58:25.517Z,32.20
2022-08-11T12:01:13.258Z,32.20
2022-08-11T12:03:41.449Z,32.30
2022-08-11T12:06:12.654Z,31.80
2022-08-11T12:08:40.090Z,32.30
2022-08-11T12:11:29.637Z,32.50
2022-08-11T12:14:01.014Z,33.10
2022-08-11T12:16:32.907Z,32.70
2022-08-11T12:19:06.654Z,32.90
2022-08-11T12:21:36.582Z,33.20
2022-08-11T12:24:29.188Z,33.30
2022-08-11T12:27:17.677Z,32.90
2022-08-11T12:29:57.228Z,32.80
2022-08-11T12:32:29.060Z,33.30
2022-08-11T12:34:58.059Z,33.00
2022-08-11T12:37:35.237Z,32.80
2022-08-11T12:40:43.256Z,32.90
2022-08-11T12:43:39.211Z,33.20
2022-08-11T12:46:13.216Z,33.50
2022-08-11T12:49:07.166Z,33.60
2022-08-11T12:52:06.784Z,33.50
2022-08-11T12:54:54.344Z,32.80
2022-08-11T12:57:46.849Z,32.70
2022-08-11T13:00:34.439Z,32.90
2022-08-11T13:03:21.680Z,33.70
2022-08-11T13:05:51.925Z,34.20
2022-08-11T13:08:22.495Z,34.30
2022-08-11T13:11:10.226Z,34.00
2022-08-11T13:13:52.319Z,33.50
2022-08-11T13:16:30.776Z,33.30
2022-08-11T13:19:00.839Z,33.00
2022-08-11T13:21:29.331Z,33.70
2022-08-11T13:24:01.818Z,34.40
2022-08-11T13:26:47.790Z,34.50
2022-08-11T13:29:22.754Z,34.40
2022-08-11T13:31:51.436Z,34.20
2022-08-11T13:34:20.522Z,33.90
2022-08-11T13:36:52.249Z,33.70
2022-08-11T13:39:25.188Z,33.50
2022-08-11T13:41:56.910Z,33.70
2022-08-11T13:44:30.004Z,34.40
2022-08-11T13:47:01.341Z,33.60
2022-08-11T13:49:34.831Z,33.30
2022-08-11T13:52:02.764Z,33.20
2022-08-11T13:54:31.984Z,33.20
2022-08-11T13:57:03.212Z,33.10
2022-08-11T13:59:51.854Z,34.00
2022-08-11T14:02:29.218Z,34.90
2022-08-11T14:05:09.960Z,33.80
2022-08-11T14:07:47.128Z,33.60
2022-08-11T14:10:16.185Z,34.00
2022-08-11T14:13:05.638Z,34.20
2022-08-11T14:15:35.244Z,34.90
2022-08-11T14:18:11.499Z,34.00
2022-08-11T14:21:00.616Z,33.70
2022-08-11T14:23:40.364Z,33.60
2022-08-11T14:26:28.116Z,33.40
2022-08-11T14:29:02.882Z,33.50
2022-08-11T14:31:31.973Z,34.30
2022-08-11T14:34:02.577Z,34.70
2022-08-11T14:36:38.350Z,34.80
2022-08-11T14:39:17.084Z,34.60
2022-08-11T14:42:17.700Z,34.10
2022-08-11T14:45:07.038Z,34.10
2022-08-11T14:47:37.110Z,33.60
2022-08-11T14:50:11.487Z,34.00
2022-08-11T14:52:55.168Z,34.50
2022-08-11T14:55:43.147Z,34.40
2022-08-11T14:58:11.480Z,35.00
2022-08-11T15:00:39.323Z,35.30
2022-08-11T15:03:11.181Z,35.60
2022-08-11T15:05:56.145Z,35.40
2022-08-11T15:08:46.620Z,36.00
2022-08-11T15:11:34.231Z,36.00
2022-08-11T15:14:03.508Z,36.20
2022-08-11T15:16:49.850Z,35.30
2022-08-11T15:19:19.820Z,34.60
2022-08-11T15:22:06.133Z,35.00
2022-08-11T15:24:36.224Z,35.70
2022-08-11T15:27:27.005Z,35.30
2022-08-11T15:30:20.911Z,34.60
2022-08-11T15:33:22.893Z,34.40
2022-08-11T15:36:09.318Z,34.40
2022-08-11T15:38:42.747Z,34.60
2022-08-11T15:41:31.564Z,35.30
2022-08-11T15:44:18.040Z,35.90
2022-08-11T15:46:45.752Z,36.20
2022-08-11T15:49:23.681Z,36.30
2022-08-11T15:52:02.452Z,35.70
2022-08-11T15:54:32.532Z,36.00
2022-08-11T15:57:02.300Z,36.00
2022-08-11T15:59:52.569Z,35.80
2022-08-11T16:02:41.050Z,35.10
2022-08-11T16:05:13.342Z,34.10
2022-08-11T16:07:42.840Z,34.00
2022-08-11T16:10:21.596Z,33.40
2022-08-11T16:13:06.237Z,34.10
2022-08-11T16:15:57.922Z,35.20
2022-08-11T16:18:40.656Z,34.90
2022-08-11T16:21:10.801Z,34.70
2022-08-11T16:23:59.648Z,34.70
2022-08-11T16:27:11.491Z,34.70
2022-08-11T16:29:18.436Z,34.90
2022-08-11T16:32:06.953Z,34.60
2022-08-11T16:34:54.308Z,33.90
2022-08-11T16:37:41.227Z,34.00
2022-08-11T16:40:09.533Z,34.40
2022-08-11T16:43:05.183Z,34.80
2022-08-11T16:45:59.167Z,34.30
2022-08-11T16:48:35.974Z,34.20
2022-08-11T16:51:07.217Z,33.80
2022-08-11T16:54:04.031Z,34.00
2022-08-11T16:56:27.176Z,34.20
2022-08-11T16:59:16.288Z,34.60
2022-08-11T17:01:48.136Z,34.70
2022-08-11T17:04:43.500Z,34.70
2022-08-11T17:07:42.433Z,34.20
2022-08-11T17:11:00.044Z,33.60
2022-08-11T17:13:52.327Z,33.70
2022-08-11T17:16:24.954Z,33.40
2022-08-11T17:19:06.774Z,33.50
2022-08-11T17:22:00.428Z,32.90
2022-08-11T17:24:29.026Z,32.80
2022-08-11T17:26:57.622Z,32.80
2022-08-11T17:29:54.548Z,32.70
2022-08-11T17:32:56.186Z,32.60
2022-08-11T17:35:33.120Z,32.30
2022-08-11T17:38:04.013Z,32.10
2022-08-11T17:40:33.602Z,32.80
2022-08-11T17:43:20.023Z,32.80
2022-08-11T17:46:06.659Z,32.60
2022-08-11T17:48:48.009Z,32.70
2022-08-11T17:51:39.534Z,32.40
2022-08-11T17:54:27.115Z,32.40
2022-08-11T17:57:20.088Z,32.10
2022-08-11T17:59:53.120Z,32.00
2022-08-11T18:02:44.310Z,31.90
2022-08-11T18:05:17.457Z,32.00
2022-08-11T18:08:04.810Z,32.00
2022-08-11T18:10:52.225Z,32.10
2022-08-11T18:13:40.344Z,31.80
2022-08-11T18:16:27.571Z,31.60
2022-08-11T18:19:13.757Z,31.60
2022-08-11T18:22:14.432Z,31.50
2022-08-11T18:25:13.161Z,31.10
2022-08-11T18:28:03.356Z,30.70
2022-08-11T18:31:03.255Z,30.10
2022-08-11T18:34:08.986Z,29.70
2022-08-11T18:37:00.732Z,29.10
2022-08-11T18:39:54.592Z,28.40
2022-08-11T18:42:43.360Z,27.80
2022-08-11T18:45:32.400Z,27.20
2022-08-11T18:48:34.195Z,26.70
2022-08-11T18:51:30.800Z,26.30
2022-08-11T18:54:27.497Z,25.90
2022-08-11T18:57:15.326Z,25.40
2022-08-11T19:00:03.206Z,25.10
2022-08-11T19:02:50.526Z,24.90
2022-08-11T19:06:06.051Z,24.80
2022-08-11T19:08:50.043Z,24.50
2022-08-11T19:11:42.760Z,24.20
2022-08-11T19:14:31.593Z,24.00
2022-08-11T19:17:44.172Z,23.70
2022-08-11T19:20:41.907Z,23.50
2022-08-11T19:23:31.482Z,23.10
2022-08-11T19:26:18.635Z,22.80
2022-08-11T19:29:07.865Z,22.50
2022-08-11T19:31:55.328Z,22.30
2022-08-11T19:34:43.186Z,22.00
2022-08-11T19:37:29.820Z,21.70
2022-08-11T19:40:28.306Z,21.40
2022-08-11T19:43:23.875Z,21.20
2022-08-11T19:46:14.800Z,21.10
2022-08-11T19:49:03.434Z,20.80
2022-08-11T19:51:53.426Z,20.70
2022-08-11T19:54:47.407Z,20.50
2022-08-11T19:57:39.547Z,20.30
2022-08-11T20:00:30.571Z,20.10
2022-08-11T20:03:17.991Z,20.10
2022-08-11T20:06:05.399Z,20.00
2022-08-11T20:08:57.835Z,19.90
2022-08-11T20:11:48.101Z,19.90
2022-08-11T20:14:36.015Z,19.70
2022-08-11T20:17:24.222Z,19.60
2022-08-11T20:20:11.010Z,19.50
2022-08-11T20:22:58.362Z,19.30
2022-08-11T20:25:45.544Z,19.20
2022-08-11T20:28:33.105Z,19.00
2022-08-11T20:31:18.912Z,18.90
2022-08-11T20:34:05.568Z,18.90
2022-08-11T20:36:54.907Z,18.70
2022-08-11T20:39:41.906Z,18.70
2022-08-11T20:42:30.676Z,18.60
2022-08-11T20:45:23.271Z,18.50
2022-08-11T20:48:14.746Z,18.40
2022-08-11T20:51:07.182Z,18.30
2022-08-11T20:54:00.090Z,18.30
2022-08-11T20:56:54.778Z,18.30
2022-08-11T20:59:49.376Z,18.30
2022-08-11T21:02:44.606Z,18.10
2022-08-11T21:06:10.643Z,18.20
2022-08-11T21:08:41.692Z,18.20
2022-08-11T21:11:28.906Z,18.10
2022-08-11T21:14:15.298Z,18.10
2022-08-11T21:17:27.041Z,18.10
2022-08-11T21:20:18.441Z,18.10
2022-08-11T21:23:13.120Z,18.00
2022-08-11T21:26:26.235Z,18.00
2022-08-11T21:29:16.723Z,17.90
2022-08-11T21:32:03.617Z,17.90
2022-08-11T21:34:50.941Z,17.90
2022-08-11T21:37:38.061Z,17.70
2022-08-11T21:40:26.877Z,17.60
2022-08-11T21:43:13.220Z,17.70
2022-08-11T21:46:01.998Z,17.70
2022-08-11T21:48:47.992Z,17.70
2022-08-11T21:51:33.413Z,17.70
2022-08-11T21:54:20.247Z,17.60
2022-08-11T21:57:06.622Z,17.60
2022-08-11T22:00:09.142Z,17.60
2022-08-11T22:02:58.611Z,17.50
2022-08-11T22:05:49.199Z,17.50
2022-08-11T22:08:34.483Z,17.50
2022-08-11T22:11:32.329Z,17.40
2022-08-11T22:14:20.288Z,17.30
2022-08-11T22:17:05.995Z,17.30
2022-08-11T22:19:53.204Z,17.40
2022-08-11T22:22:52.113Z,17.20
2022-08-11T22:25:50.878Z,17.20
2022-08-11T22:28:37.448Z,17.10
2022-08-11T22:31:24.508Z,17.10
2022-08-11T22:34:09.900Z,17.00
2022-08-11T22:36:56.416Z,17.00
2022-08-11T22:39:43.425Z,16.90
2022-08-11T22:42:33.472Z,16.90
2022-08-11T22:45:19.934Z,16.80
2022-08-11T22:48:06.769Z,16.70
2022-08-11T22:50:57.596Z,16.70
2022-08-11T22:53:58.176Z,16.60
2022-08-11T22:56:47.161Z,16.50
2022-08-11T22:59:34.525Z,16.50
2022-08-11T23:02:21.439Z,16.30
2022-08-11T23:05:08.661Z,16.20
2022-08-11T23:07:57.981Z,16.20
2022-08-11T23:10:44.266Z,16.10
2022-08-11T23:13:30.243Z,15.90
2022-08-11T23:16:16.788Z,15.80
2022-08-11T23:19:03.657Z,15.80
2022-08-11T23:21:50.772Z,15.90
2022-08-11T23:24:36.716Z,15.80
2022-08-11T23:27:24.614Z,15.80
2022-08-11T23:30:13.535Z,15.60
2022-08-11T23:33:03.603Z,15.60
2022-08-11T23:35:56.606Z,15.50
2022-08-11T23:38:44.961Z,15.50
2022-08-11T23:41:32.735Z,15.40
2022-08-11T23:44:23.513Z,15.40
2022-08-11T23:47:12.835Z,15.50
2022-08-11T23:49:58.730Z,15.40
2022-08-11T23:52:45.957Z,15.40
2022-08-11T23:55:31.660Z,15.50
2022-08-11T23:58:17.086Z,15.30
